Boutte, Louisiana
Current Conditions -  °F | °C
As of 8:53 AM on Monday 24 Nov 2014 (Local Time) from KMSY Reporting Station
Scattered Clouds Scattered Clouds  
Wind Chill: 68°   Ceiling: Unl
Heat Index: 68°   Visibility: 10mi
Dew Point: 62°   Wind: 13mph
Humidity: 81%   Direction: 310°NW
Pressure: 29.87"   Gusts: NA
Location:  29.9°N, 90.39°W
Report Text: KMSY 241453Z 31011KT 10SM FEW011 SCT250 20/17 A2987 RMK AO2 SLP119 T02000167 53022
Loading
Personal Weather Stations






























Interactive Weather Map New forecast layout! Learn more

10-Day Weather Forecast

Advertisements
Track Severe Weather on mobile